Oil Springs, Kentucky
Current Conditions -  °F | °C
As of 3:55 PM on Saturday 25 Oct 2014 (Local Time) from KSJS Reporting Station
Haze Haze  
Wind Chill: 65°   Ceiling: 2800
Heat Index: 65°   Visibility: 3mi
Dew Point: 50°   Wind: 6mph
Humidity: 57%   Direction: 230°SW
Pressure: 29.98"   Gusts: NA
Location:  37.81°N, 82.94°W
Report Text: KSJS 251955Z AUTO 23005KT 3SM HZ OVC028 19/10 A2998 RMK AO2 T01850098
Loading
Personal Weather Stations






























Interactive Weather Map
Tropical Storm Tracking
New forecast layout! Learn more

10-Day Weather Forecast

Advertisements
Track Severe Weather on mobile